Impacts TAF Board
For situational awareness. Not to be used for flight planning purposes.
IDs:

EDDK - Koln-Bonn Arpt, NT, DL

Issued at 1100 UTC 05 Aug 2021
Updated at 1402 UTC 05 Aug 2021
Potential Impact None Slight Moderate High
Time1350Z 05/15Z 05/16Z 05/17Z 05/18Z 05/19Z 05/20Z 05/21Z 05/22Z 05/23Z 06/00Z 06/01Z 06/02Z 06/03Z>>
Type OBS PRVL
  [PRB30]  
PRVL
  [PRB30]  
PRVL
  [TEMP]  
PRVL PRVL PRVL PRVL PRVL PRVL PRVL PRVL PRVL PRVL
  [TEMP]  
VIS >6 >6 >6 >6 >6 >6 >6 >6 >6 >6 >6 >6 >6 >6
CIG -- --
  [--]  
--
  [--]  
--
  [30]  
-- -- -- -- -- -- -- -- -- --
  [--]  
Cover FEW SCT
  [SCT]  
SCT
  [SCT]  
SCT
  [BKN]  
SCT SCT SCT SCT SCT SCT SCT SCT SCT SCT
  [SCT]  
FltCat VFR VFR
  [VFR]  
VFR
  [VFR]  
VFR
  [MVFR]  
VFR VFR VFR VFR VFR VFR VFR VFR VFR VFR
  [VFR]  
WX VCSH --
  [TSRA]  
--
  [TSRA]  
--
  [SHRA]  
-- -- -- -- -- -- -- -- -- --
  [RA]  
WDir VRB 140
[140]
140
[140]
140
[140]
140 140 140 140 140 140 140 140 140 140
[140]
WSpd 2 5
  [5]  
5
  [5]  
5
  [5]  
5 5 5 5 5 5 5 5 5 5
  [5]  
WGst -- --
  [--]  
--
  [--]  
--
  [--]  
-- -- -- -- -- -- -- -- -- --
  [--]  
Raw TAF
TAF EDDK 051100Z 0512/0618 VRB03KT 9999 SCT040
  BECMG 0512/0514 14005KT
  TEMPO 0512/0518 SHRA BKN030CB
  PROB30
  TEMPO 0512/0517 TSRA
  TEMPO 0603/0606 RA
  BECMG 0608/0611 22010KT
  TEMPO 0608/0617 SHRA BKN030CB
  PROB30
  TEMPO 0610/0616 22015G25KT TSRA


Raw METAR
EDDK 051350Z VRB02KT 9999 VCSH FEW032 FEW040CB 23/13 Q1008 NOSIG
EDDK 051320Z VRB03KT 9999 FEW032 FEW040CB 23/13 Q1008 NOSIG
EDDK 051250Z VRB04KT 9999 FEW032 FEW040CB 23/13 Q1008 NOSIG
EDDK 051220Z 16006KT 110V190 9999 -SHRA FEW032 FEW040CB 22/14 Q1008 NOSIG
EDDK 051150Z 16007KT 9999 -SHRA FEW032 FEW040CB 21/14 Q1009 TEMPO SHRA

METAR Board
For situational awareness. Not to be used for flight planning purposes.